createdAt,value
2017-06-21T00:01:37.041Z,98419.98
2017-06-21T00:04:05.406Z,98415.09
2017-06-21T00:06:33.785Z,98412.91
2017-06-21T00:09:02.094Z,98415.68
2017-06-21T00:11:30.432Z,98410.80
2017-06-21T00:13:58.872Z,98408.86
2017-06-21T00:16:27.230Z,98409.70
2017-06-21T00:18:55.554Z,98409.33
2017-06-21T00:21:24.062Z,98403.06
2017-06-21T00:23:52.409Z,98397.92
2017-06-21T00:26:20.749Z,98403.31
2017-06-21T00:28:49.090Z,98402.72
2017-06-21T00:31:17.439Z,98400.39
2017-06-21T00:33:45.814Z,98400.81
2017-06-21T00:36:14.219Z,98402.21
2017-06-21T00:38:42.571Z,98393.28
2017-06-21T00:41:10.983Z,98398.59
2017-06-21T00:43:39.357Z,98388.66
2017-06-21T00:46:07.768Z,98393.61
2017-06-21T00:48:36.120Z,98395.38
2017-06-21T00:51:04.568Z,98385.81
2017-06-21T00:53:32.919Z,98389.03
2017-06-21T00:56:01.256Z,98380.13
2017-06-21T00:58:29.610Z,98383.87
2017-06-21T01:00:57.941Z,98380.29
2017-06-21T01:03:26.339Z,98365.70
2017-06-21T01:05:54.704Z,98372.69
2017-06-21T01:08:23.069Z,98362.64
2017-06-21T01:10:51.409Z,98382.91
2017-06-21T01:13:19.758Z,98376.64
2017-06-21T01:15:48.101Z,98389.89
2017-06-21T01:18:16.444Z,98388.56
2017-06-21T01:20:44.798Z,98396.45
2017-06-21T01:23:13.142Z,98408.80
2017-06-21T01:25:41.499Z,98397.91
2017-06-21T01:28:09.857Z,98411.08
2017-06-21T01:30:38.190Z,98406.42
2017-06-21T01:33:06.599Z,98416.70
2017-06-21T01:35:35.012Z,98426.50
2017-06-21T01:38:03.527Z,98420.11
2017-06-21T01:40:31.864Z,98425.41
2017-06-21T01:43:00.219Z,98434.12
2017-06-21T01:45:28.554Z,98431.05
2017-06-21T01:47:56.881Z,98443.34
2017-06-21T01:50:25.233Z,98442.23
2017-06-21T01:52:53.569Z,98445.67
2017-06-21T01:55:21.978Z,98433.93
2017-06-21T01:57:50.326Z,98434.45
2017-06-21T02:00:18.686Z,98428.72
2017-06-21T02:02:47.064Z,98424.63
2017-06-21T02:05:15.467Z,98423.88
2017-06-21T02:07:43.801Z,98423.63
2017-06-21T02:10:12.171Z,98429.97
2017-06-21T02:12:40.512Z,98442.66
2017-06-21T02:15:08.892Z,98443.43
2017-06-21T02:17:37.324Z,98441.38
2017-06-21T02:20:05.777Z,98451.84
2017-06-21T02:22:34.140Z,98442.27
2017-06-21T02:25:02.538Z,98435.91
2017-06-21T02:27:30.905Z,98446.83
2017-06-21T02:29:59.268Z,98443.77
2017-06-21T02:32:27.633Z,98439.50
2017-06-21T02:34:55.995Z,98443.47
2017-06-21T02:37:24.396Z,98455.45
2017-06-21T02:39:52.737Z,98451.41
2017-06-21T02:42:21.098Z,98457.00
2017-06-21T02:44:49.482Z,98459.91
2017-06-21T02:47:17.826Z,98467.13
2017-06-21T02:49:46.193Z,98468.02
2017-06-21T02:52:14.546Z,98470.05
2017-06-21T02:54:42.885Z,98472.02
2017-06-21T02:57:11.241Z,98480.73
2017-06-21T02:59:39.601Z,98477.47
2017-06-21T03:02:07.945Z,98483.60
2017-06-21T03:04:36.332Z,98483.62
2017-06-21T03:07:04.670Z,98487.50
2017-06-21T03:09:33.039Z,98490.70
2017-06-21T03:12:01.408Z,98493.64
2017-06-21T03:14:29.839Z,98504.50
2017-06-21T03:16:58.194Z,98511.36
2017-06-21T03:19:26.529Z,98520.80
2017-06-21T03:21:54.886Z,98526.27
2017-06-21T03:24:23.231Z,98527.02
2017-06-21T03:26:51.577Z,98530.70
2017-06-21T03:29:19.926Z,98526.55
2017-06-21T03:31:48.264Z,98532.88
2017-06-21T03:34:16.618Z,98536.48
2017-06-21T03:36:44.983Z,98537.20
2017-06-21T03:39:13.322Z,98538.36
2017-06-21T03:41:41.691Z,98537.17
2017-06-21T03:44:10.044Z,98534.38
2017-06-21T03:46:38.393Z,98533.15
2017-06-21T03:49:06.738Z,98536.48
2017-06-21T03:51:35.077Z,98542.75
2017-06-21T03:54:03.453Z,98532.94
2017-06-21T03:56:32.879Z,98533.42
2017-06-21T03:59:01.279Z,98534.72
2017-06-21T04:01:29.616Z,98533.61
2017-06-21T04:04:00.597Z,98532.34
2017-06-21T04:06:29.363Z,98537.40
2017-06-21T04:08:57.777Z,98542.59
2017-06-21T04:11:26.119Z,98547.09
2017-06-21T04:13:54.458Z,98550.78
2017-06-21T04:16:22.900Z,98552.64
2017-06-21T04:18:51.236Z,98559.70
2017-06-21T04:21:19.585Z,98554.27
2017-06-21T04:23:48.042Z,98564.86
2017-06-21T04:26:16.382Z,98557.74
2017-06-21T04:28:44.768Z,98562.55
2017-06-21T04:31:13.113Z,98565.99
2017-06-21T04:33:41.465Z,98566.09
2017-06-21T04:36:09.833Z,98572.37
2017-06-21T04:38:38.184Z,98578.68
2017-06-21T04:41:06.546Z,98580.12
2017-06-21T04:43:34.925Z,98588.26
2017-06-21T04:46:03.272Z,98581.46
2017-06-21T04:48:31.614Z,98588.61
2017-06-21T04:50:59.993Z,98590.08
2017-06-21T04:53:28.330Z,98590.53
2017-06-21T04:55:56.688Z,98589.63
2017-06-21T04:58:25.036Z,98587.92
2017-06-21T05:00:53.404Z,98592.54
2017-06-21T05:03:21.758Z,98584.19
2017-06-21T05:05:50.101Z,98586.70
2017-06-21T05:08:18.469Z,98589.19
2017-06-21T05:10:46.850Z,98589.20
2017-06-21T05:13:15.173Z,98579.67
2017-06-21T05:15:43.525Z,98577.42
2017-06-21T05:18:11.874Z,98585.65
2017-06-21T05:20:40.217Z,98585.80
2017-06-21T05:23:08.593Z,98585.03
2017-06-21T05:25:36.986Z,98581.46
2017-06-21T05:28:05.321Z,98589.52
2017-06-21T05:30:33.757Z,98594.33
2017-06-21T05:33:02.121Z,98594.95
2017-06-21T05:35:30.466Z,98586.45
2017-06-21T05:37:58.829Z,98592.38
2017-06-21T05:40:27.185Z,98593.85
2017-06-21T05:42:55.564Z,98589.58
2017-06-21T05:45:23.951Z,98590.47
2017-06-21T05:47:52.286Z,98582.11
2017-06-21T05:50:20.694Z,98584.11
2017-06-21T05:52:49.010Z,98581.52
2017-06-21T05:55:17.376Z,98584.09
2017-06-21T05:57:45.729Z,98589.72
2017-06-21T06:00:14.113Z,98587.95
2017-06-21T06:02:42.469Z,98589.53
2017-06-21T06:05:10.878Z,98589.55
2017-06-21T06:07:39.201Z,98588.98
2017-06-21T06:10:07.599Z,98590.22
2017-06-21T06:12:35.953Z,98594.92
2017-06-21T06:15:04.324Z,98595.52
2017-06-21T06:17:33.357Z,98593.67
2017-06-21T06:20:01.726Z,98594.47
2017-06-21T06:22:30.100Z,98592.73
2017-06-21T06:24:58.529Z,98595.09
2017-06-21T06:27:26.870Z,98593.58
2017-06-21T06:29:55.208Z,98594.84
2017-06-21T06:32:23.549Z,98593.05
2017-06-21T06:34:51.928Z,98593.44
2017-06-21T06:37:20.268Z,98593.68
2017-06-21T06:39:48.662Z,98595.16
2017-06-21T06:42:17.009Z,98600.69
2017-06-21T06:44:45.357Z,98609.41
2017-06-21T06:47:13.742Z,98609.30
2017-06-21T06:49:42.157Z,98610.38
2017-06-21T06:52:10.521Z,98614.22
2017-06-21T06:54:38.925Z,98624.52
2017-06-21T06:57:07.286Z,98619.31
2017-06-21T06:59:35.646Z,98622.60
2017-06-21T07:02:04.006Z,98619.50
2017-06-21T07:04:32.361Z,98620.77
2017-06-21T07:07:00.741Z,98615.02
2017-06-21T07:09:29.138Z,98617.57
2017-06-21T07:11:57.478Z,98617.45
2017-06-21T07:14:25.821Z,98614.03
2017-06-21T07:16:54.193Z,98615.58
2017-06-21T07:19:22.577Z,98612.75
2017-06-21T07:21:50.902Z,98613.61
2017-06-21T07:24:19.253Z,98611.20
2017-06-21T07:26:47.593Z,98616.55
2017-06-21T07:29:15.933Z,98609.80
2017-06-21T07:31:44.277Z,98608.49
2017-06-21T07:34:12.633Z,98616.19
2017-06-21T07:36:40.973Z,98616.65
2017-06-21T07:39:09.348Z,98616.43
2017-06-21T07:41:37.705Z,98615.36
2017-06-21T07:44:06.095Z,98611.09
2017-06-21T07:46:34.442Z,98612.45
2017-06-21T07:49:02.823Z,98611.55
2017-06-21T07:51:31.257Z,98615.67
2017-06-21T07:53:59.609Z,98615.50
2017-06-21T07:56:27.950Z,98616.55
2017-06-21T07:58:56.349Z,98614.97
2017-06-21T08:01:24.707Z,98612.02
2017-06-21T08:03:53.086Z,98612.83
2017-06-21T08:06:21.443Z,98606.13
2017-06-21T08:08:49.798Z,98611.31
2017-06-21T08:11:18.137Z,98613.22
2017-06-21T08:13:46.494Z,98611.84
2017-06-21T08:16:14.858Z,98607.90
2017-06-21T08:18:43.201Z,98616.03
2017-06-21T08:21:11.564Z,98623.80
2017-06-21T08:23:39.904Z,98623.97
2017-06-21T08:26:08.255Z,98613.47
2017-06-21T08:28:36.596Z,98610.28
2017-06-21T08:31:04.947Z,98601.17
2017-06-21T08:33:33.287Z,98601.28
2017-06-21T08:36:01.633Z,98599.17
2017-06-21T08:38:29.982Z,98596.14
2017-06-21T08:40:58.425Z,98603.82
2017-06-21T08:43:26.765Z,98602.77
2017-06-21T08:45:55.133Z,98600.91
2017-06-21T08:48:23.481Z,98601.41
2017-06-21T08:50:51.829Z,98599.45
2017-06-21T08:53:20.176Z,98594.34
2017-06-21T08:55:48.529Z,98594.94
2017-06-21T08:58:16.896Z,98594.80
2017-06-21T09:00:45.241Z,98603.02
2017-06-21T09:03:13.587Z,98597.27
2017-06-21T09:05:41.937Z,98596.11
2017-06-21T09:08:10.366Z,98594.92
2017-06-21T09:10:38.709Z,98600.25
2017-06-21T09:13:07.049Z,98601.56
2017-06-21T09:15:35.401Z,98595.80
2017-06-21T09:18:03.760Z,98591.94
2017-06-21T09:20:32.137Z,98594.56
2017-06-21T09:23:00.482Z,98597.30
2017-06-21T09:25:28.867Z,98588.50
2017-06-21T09:27:57.213Z,98592.41
2017-06-21T09:30:25.582Z,98595.14
2017-06-21T09:32:54.010Z,98596.03
2017-06-21T09:35:22.486Z,98587.33
2017-06-21T09:37:50.813Z,98587.30
2017-06-21T09:40:19.759Z,98585.67
2017-06-21T09:42:48.093Z,98583.34
2017-06-21T09:45:16.484Z,98580.16
2017-06-21T09:47:44.868Z,98579.15
2017-06-21T09:50:13.367Z,98581.56
2017-06-21T09:52:41.708Z,98572.58
2017-06-21T09:55:10.077Z,98572.35
2017-06-21T09:57:38.417Z,98574.92
2017-06-21T10:00:06.803Z,98568.77
2017-06-21T10:02:35.169Z,98568.99
2017-06-21T10:05:03.696Z,98574.78
2017-06-21T10:07:32.030Z,98563.97
2017-06-21T10:10:00.386Z,98572.56
2017-06-21T10:12:28.713Z,98563.78
2017-06-21T10:14:57.081Z,98567.37
2017-06-21T10:17:25.420Z,98568.36
2017-06-21T10:19:53.796Z,98572.61
2017-06-21T10:22:22.143Z,98571.13
2017-06-21T10:24:50.488Z,98568.73
2017-06-21T10:27:19.168Z,98564.45
2017-06-21T10:29:47.508Z,98565.58
2017-06-21T10:32:15.854Z,98565.42
2017-06-21T10:34:44.198Z,98561.67
2017-06-21T10:37:12.546Z,98562.64
2017-06-21T10:39:40.922Z,98558.16
2017-06-21T10:42:09.269Z,98560.77
2017-06-21T10:44:37.604Z,98556.14
2017-06-21T10:47:05.949Z,98554.02
2017-06-21T10:49:34.277Z,98547.86
2017-06-21T10:52:02.612Z,98547.05
2017-06-21T10:54:30.950Z,98532.46
2017-06-21T10:56:59.300Z,98522.89
2017-06-21T10:59:27.652Z,98526.78
2017-06-21T11:01:55.977Z,98528.77
2017-06-21T11:04:24.305Z,98525.36
2017-06-21T11:06:52.650Z,98522.10
2017-06-21T11:09:20.993Z,98522.78
2017-06-21T11:11:49.338Z,98516.35
2017-06-21T11:14:17.688Z,98520.70
2017-06-21T11:16:46.067Z,98508.15
2017-06-21T11:19:14.426Z,98511.93
2017-06-21T11:21:42.755Z,98517.91
2017-06-21T11:24:11.124Z,98520.64
2017-06-21T11:26:39.439Z,98515.67
2017-06-21T11:29:07.792Z,98515.05
2017-06-21T11:31:36.349Z,98511.70
2017-06-21T11:34:04.694Z,98515.06
2017-06-21T11:36:33.033Z,98500.47
2017-06-21T11:39:01.433Z,98498.03
2017-06-21T11:41:29.785Z,98500.88
2017-06-21T11:43:58.124Z,98498.92
2017-06-21T11:46:26.579Z,98490.27
2017-06-21T11:48:54.897Z,98496.55
2017-06-21T11:51:23.246Z,98491.39
2017-06-21T11:53:51.716Z,98489.37
2017-06-21T11:56:20.070Z,98484.99
2017-06-21T11:58:48.391Z,98484.09
2017-06-21T12:01:16.724Z,98471.50
2017-06-21T12:03:45.057Z,98476.59
2017-06-21T12:06:13.411Z,98481.12
2017-06-21T12:08:41.801Z,98484.22
2017-06-21T12:11:10.117Z,98491.37
2017-06-21T12:13:38.493Z,98481.59
2017-06-21T12:16:06.830Z,98475.64
2017-06-21T12:18:35.388Z,98466.48
2017-06-21T12:21:03.735Z,98456.51
2017-06-21T12:23:32.090Z,98448.13
2017-06-21T12:26:00.422Z,98451.13
2017-06-21T12:28:28.765Z,98460.09
2017-06-21T12:30:57.108Z,98458.89
2017-06-21T12:33:25.493Z,98453.30
2017-06-21T12:35:53.827Z,98452.10
2017-06-21T12:38:22.201Z,98454.48
2017-06-21T12:40:50.543Z,98464.45
2017-06-21T12:43:18.869Z,98483.88
2017-06-21T12:45:47.201Z,98503.19
2017-06-21T12:48:15.567Z,98507.33
2017-06-21T12:50:43.893Z,98512.40
2017-06-21T12:53:12.221Z,98498.95
2017-06-21T12:55:40.561Z,98502.66
2017-06-21T12:58:08.914Z,98521.12
2017-06-21T13:00:37.259Z,98528.81
2017-06-21T13:03:05.636Z,98525.88
2017-06-21T13:05:33.994Z,98518.38
2017-06-21T13:08:02.355Z,98521.36
2017-06-21T13:10:30.684Z,98528.89
2017-06-21T13:12:59.022Z,98530.30
2017-06-21T13:15:27.388Z,98519.97
2017-06-21T13:17:55.708Z,98514.14
2017-06-21T13:20:24.079Z,98500.73
2017-06-21T13:22:52.448Z,98493.63
2017-06-21T13:25:20.838Z,98505.92
2017-06-21T13:27:49.162Z,98497.49
2017-06-21T13:30:17.567Z,98493.13
2017-06-21T13:32:45.886Z,98482.38
2017-06-21T13:35:14.282Z,98468.59
2017-06-21T13:37:42.628Z,98467.72
2017-06-21T13:40:11.058Z,98471.44
2017-06-21T13:42:39.400Z,98474.11
2017-06-21T13:45:07.789Z,98467.50
2017-06-21T13:47:36.176Z,98464.61
2017-06-21T13:50:04.564Z,98459.52
2017-06-21T13:52:32.975Z,98467.33
2017-06-21T13:55:01.343Z,98470.00
2017-06-21T13:57:29.671Z,98476.60
2017-06-21T13:59:58.013Z,98474.50
2017-06-21T14:02:26.417Z,98475.06
2017-06-21T14:04:54.764Z,98470.97
2017-06-21T14:07:23.113Z,98470.73
2017-06-21T14:09:51.460Z,98464.52
2017-06-21T14:12:19.824Z,98453.27
2017-06-21T14:14:48.160Z,98457.58
2017-06-21T14:17:16.497Z,98451.94
2017-06-21T14:19:44.862Z,98454.94
2017-06-21T14:22:13.257Z,98447.96
2017-06-21T14:24:41.594Z,98445.75
2017-06-21T14:27:10.198Z,98449.70
2017-06-21T14:29:38.535Z,98446.44
2017-06-21T14:32:06.858Z,98452.67
2017-06-21T14:34:35.230Z,98452.31
2017-06-21T14:37:03.603Z,98447.96
2017-06-21T14:39:31.929Z,98442.81
2017-06-21T14:42:00.273Z,98445.36
2017-06-21T14:44:28.605Z,98434.55
2017-06-21T14:46:56.934Z,98434.14
2017-06-21T14:49:25.352Z,98441.05
2017-06-21T14:51:53.682Z,98433.72
2017-06-21T14:54:22.011Z,98442.48
2017-06-21T14:56:50.336Z,98435.85
2017-06-21T14:59:18.734Z,98433.13
2017-06-21T15:01:47.057Z,98437.87
2017-06-21T15:04:15.406Z,98449.45
2017-06-21T15:06:43.757Z,98452.41
2017-06-21T15:09:12.406Z,98452.66
2017-06-21T15:11:40.914Z,98452.34
2017-06-21T15:14:09.245Z,98443.97
2017-06-21T15:16:37.671Z,98447.11
2017-06-21T15:19:06.884Z,98446.25
2017-06-21T15:21:35.249Z,98435.52
2017-06-21T15:24:03.600Z,98426.05
2017-06-21T15:26:31.946Z,98419.62
2017-06-21T15:29:00.285Z,98419.00
2017-06-21T15:31:28.713Z,98416.84
2017-06-21T15:33:57.078Z,98412.43
2017-06-21T15:36:25.472Z,98416.77
2017-06-21T15:38:53.874Z,98419.27
2017-06-21T15:41:22.237Z,98410.02
2017-06-21T15:43:50.570Z,98406.91
2017-06-21T15:46:19.073Z,98408.13
2017-06-21T15:48:47.505Z,98417.52
2017-06-21T15:51:15.862Z,98415.42
2017-06-21T15:53:44.221Z,98410.92
2017-06-21T15:56:12.602Z,98411.20
2017-06-21T15:58:40.949Z,98404.03
2017-06-21T16:01:09.292Z,98404.41
2017-06-21T16:03:37.800Z,98396.28
2017-06-21T16:06:06.206Z,98407.26
2017-06-21T16:08:34.553Z,98400.65
2017-06-21T16:11:02.895Z,98414.99
2017-06-21T16:13:31.320Z,98409.42
2017-06-21T16:15:59.711Z,98410.22
2017-06-21T16:18:28.070Z,98409.81
2017-06-21T16:20:56.381Z,98398.98
2017-06-21T16:23:24.722Z,98401.83
2017-06-21T16:25:53.079Z,98398.06
2017-06-21T16:28:21.435Z,98394.73
2017-06-21T16:30:49.741Z,98393.30
2017-06-21T16:33:18.113Z,98385.33
2017-06-21T16:35:46.443Z,98391.25
2017-06-21T16:38:14.777Z,98388.58
2017-06-21T16:40:43.109Z,98381.28
2017-06-21T16:43:11.455Z,98382.59
2017-06-21T16:45:39.806Z,98381.69
2017-06-21T16:48:08.156Z,98378.53
2017-06-21T16:50:36.543Z,98385.70
2017-06-21T16:53:04.890Z,98387.70
2017-06-21T16:55:33.250Z,98384.14
2017-06-21T16:58:01.587Z,98387.20
2017-06-21T17:00:29.945Z,98387.73
2017-06-21T17:02:58.284Z,98390.24
2017-06-21T17:05:26.659Z,98398.46
2017-06-21T17:07:54.993Z,98405.16
2017-06-21T17:10:23.385Z,98410.80
2017-06-21T17:12:51.742Z,98416.17
2017-06-21T17:15:20.140Z,98413.21
2017-06-21T17:17:48.519Z,98401.41
2017-06-21T17:20:16.919Z,98405.97
2017-06-21T17:22:45.278Z,98408.44
2017-06-21T17:25:13.705Z,98412.11
2017-06-21T17:27:42.037Z,98412.80
2017-06-21T17:30:10.498Z,98413.39
2017-06-21T17:32:38.868Z,98419.67
2017-06-21T17:35:07.211Z,98431.09
2017-06-21T17:37:35.716Z,98429.70
2017-06-21T17:40:04.244Z,98431.86
2017-06-21T17:42:32.593Z,98427.23
2017-06-21T17:45:00.934Z,98421.42
2017-06-21T17:47:29.424Z,98422.76
2017-06-21T17:49:57.850Z,98427.42
2017-06-21T17:52:26.231Z,98432.22
2017-06-21T17:54:55.141Z,98434.92
2017-06-21T17:57:23.489Z,98439.56
2017-06-21T17:59:51.821Z,98438.58
2017-06-21T18:02:20.194Z,98439.61
2017-06-21T18:04:48.512Z,98436.92
2017-06-21T18:07:16.840Z,98437.78
2017-06-21T18:09:45.181Z,98434.93
2017-06-21T18:12:13.558Z,98436.95
2017-06-21T18:14:42.005Z,98438.13
2017-06-21T18:17:10.480Z,98438.30
2017-06-21T18:19:38.813Z,98436.16
2017-06-21T18:22:07.141Z,98425.01
2017-06-21T18:24:35.514Z,98426.45
2017-06-21T18:27:03.879Z,98419.41
2017-06-21T18:29:32.212Z,98417.87
2017-06-21T18:32:00.554Z,98422.73
2017-06-21T18:34:29.250Z,98421.19
2017-06-21T18:36:57.589Z,98432.20
2017-06-21T18:39:25.940Z,98436.27
2017-06-21T18:41:54.373Z,98441.88
2017-06-21T18:44:22.758Z,98440.55
2017-06-21T18:46:51.100Z,98438.17
2017-06-21T18:49:19.453Z,98437.73
2017-06-21T18:51:47.990Z,98440.31
2017-06-21T18:54:16.360Z,98446.98
2017-06-21T18:56:44.721Z,98451.16
2017-06-21T18:59:13.085Z,98455.91
2017-06-21T19:01:42.546Z,98455.39
2017-06-21T19:04:11.752Z,98451.90
2017-06-21T19:06:40.099Z,98455.00
2017-06-21T19:09:08.441Z,98461.03
2017-06-21T19:11:36.803Z,98459.36
2017-06-21T19:14:05.162Z,98470.36
2017-06-21T19:16:33.529Z,98464.39
2017-06-21T19:19:01.912Z,98478.22
2017-06-21T19:21:30.352Z,98483.39
2017-06-21T19:23:58.740Z,98487.94
2017-06-21T19:26:27.131Z,98488.09
2017-06-21T19:28:55.457Z,98494.98
2017-06-21T19:31:23.809Z,98502.77
2017-06-21T19:33:52.274Z,98512.05
2017-06-21T19:36:20.610Z,98513.23
2017-06-21T19:38:48.976Z,98511.03
2017-06-21T19:41:17.342Z,98514.97
2017-06-21T19:43:45.754Z,98522.14
2017-06-21T19:46:14.105Z,98529.03
2017-06-21T19:48:42.488Z,98534.52
2017-06-21T19:51:10.856Z,98535.02
2017-06-21T19:53:39.336Z,98534.81
2017-06-21T19:56:07.721Z,98542.19
2017-06-21T19:58:36.074Z,98538.52
2017-06-21T20:01:04.523Z,98537.89
2017-06-21T20:03:32.882Z,98537.16
2017-06-21T20:06:01.243Z,98540.81
2017-06-21T20:08:29.677Z,98537.48
2017-06-21T20:10:58.029Z,98539.02
2017-06-21T20:13:26.373Z,98544.57
2017-06-21T20:15:54.718Z,98545.09
2017-06-21T20:18:23.077Z,98543.56
2017-06-21T20:20:51.434Z,98549.06
2017-06-21T20:23:19.847Z,98544.14
2017-06-21T20:25:48.187Z,98545.56
2017-06-21T20:28:16.595Z,98550.45
2017-06-21T20:30:44.925Z,98546.26
2017-06-21T20:33:13.294Z,98549.33
2017-06-21T20:35:41.664Z,98545.42
2017-06-21T20:38:10.029Z,98544.73
2017-06-21T20:40:39.249Z,98549.48
2017-06-21T20:43:07.610Z,98558.90
2017-06-21T20:45:36.053Z,98551.94
2017-06-21T20:48:04.416Z,98544.11
2017-06-21T20:50:32.781Z,98536.39
2017-06-21T20:53:01.215Z,98533.85
2017-06-21T20:55:29.586Z,98529.09
2017-06-21T20:57:57.934Z,98530.77
2017-06-21T21:00:26.298Z,98530.94
2017-06-21T21:02:54.638Z,98532.17
2017-06-21T21:05:23.119Z,98524.09
2017-06-21T21:07:51.465Z,98524.68
2017-06-21T21:10:19.852Z,98518.94
2017-06-21T21:12:48.185Z,98520.00
2017-06-21T21:15:16.585Z,98513.78
2017-06-21T21:17:44.925Z,98506.52
2017-06-21T21:20:13.330Z,98509.73
2017-06-21T21:22:41.677Z,98504.09
2017-06-21T21:25:10.070Z,98507.48
2017-06-21T21:27:38.408Z,98504.03
2017-06-21T21:30:06.805Z,98503.84
2017-06-21T21:32:35.145Z,98502.72
2017-06-21T21:35:03.545Z,98506.70
2017-06-21T21:37:31.902Z,98504.91
2017-06-21T21:40:00.268Z,98508.20
2017-06-21T21:42:28.698Z,98503.77
2017-06-21T21:44:57.070Z,98499.20
2017-06-21T21:47:26.534Z,98492.44
2017-06-21T21:49:54.914Z,98494.36
2017-06-21T21:52:23.269Z,98496.86
2017-06-21T21:54:52.712Z,98497.00
2017-06-21T21:57:21.085Z,98505.04
2017-06-21T21:59:49.448Z,98497.84
2017-06-21T22:02:17.802Z,98499.51
2017-06-21T22:04:46.178Z,98498.64
2017-06-21T22:07:14.533Z,98495.34
2017-06-21T22:09:42.897Z,98500.95
2017-06-21T22:12:11.239Z,98495.95
2017-06-21T22:14:39.593Z,98500.77
2017-06-21T22:17:08.634Z,98508.23
2017-06-21T22:19:36.973Z,98497.35
2017-06-21T22:22:05.357Z,98502.96
2017-06-21T22:24:33.703Z,98507.47
2017-06-21T22:27:02.069Z,98514.12
2017-06-21T22:29:30.421Z,98512.27
2017-06-21T22:31:58.772Z,98511.72
2017-06-21T22:34:27.133Z,98513.81
2017-06-21T22:36:55.497Z,98515.86
2017-06-21T22:39:23.829Z,98515.72
2017-06-21T22:41:52.189Z,98510.67
2017-06-21T22:44:20.540Z,98504.98
2017-06-21T22:46:48.919Z,98515.59
2017-06-21T22:49:17.388Z,98517.03
2017-06-21T22:51:45.733Z,98520.50
2017-06-21T22:54:14.097Z,98524.13
2017-06-21T22:56:42.445Z,98516.92
2017-06-21T22:59:10.818Z,98520.80
2017-06-21T23:01:39.162Z,98527.58
2017-06-21T23:04:07.521Z,98528.81
2017-06-21T23:06:35.877Z,98531.03
2017-06-21T23:09:04.221Z,98533.10
2017-06-21T23:11:32.566Z,98538.78
2017-06-21T23:14:00.925Z,98537.98
2017-06-21T23:16:29.463Z,98531.36
2017-06-21T23:18:57.790Z,98538.25
2017-06-21T23:21:26.184Z,98530.81
2017-06-21T23:23:54.519Z,98522.03
2017-06-21T23:26:22.862Z,98521.31
2017-06-21T23:28:51.211Z,98520.05
2017-06-21T23:31:19.570Z,98520.78
2017-06-21T23:33:47.962Z,98521.99
2017-06-21T23:36:16.317Z,98530.91
2017-06-21T23:38:44.676Z,98529.87
2017-06-21T23:41:13.023Z,98524.67
2017-06-21T23:43:41.370Z,98524.89
2017-06-21T23:46:09.716Z,98521.70
2017-06-21T23:48:38.059Z,98524.36
2017-06-21T23:51:06.406Z,98520.94
2017-06-21T23:53:34.758Z,98531.39
2017-06-21T23:56:03.114Z,98526.50
2017-06-21T23:58:31.465Z,98527.19
